Main page
METAR-TAF:

METAR-TAF

Airports :

Bückeburg Air Base

Bückeburg, Germany

latitude: 52-17N, longitude: 009-05E, elevation: 70 m

Current weather observation

The report was made 46 minutes ago, at 13:20 UTC
Wind 8 kt from the West/Northwest
Temperature 15°C
Humidity 51%
Pressure 1030 hPa
Visibility 10 km or more

METAR: ETHB 201320Z AUTO 30008KT 9999 // ////// 15/05 Q1030 ///

Time: 16:06 (14:06 UTC)

Forecast

The report was made 28 hours and 39 minutes ago, at 09:27 UTC
Forecast valid from 19 at 08 UTC to 19 at 17 UTC
Wind 2 kt from variable directions
Visibility: 0100 m
at a height of 100 ft
fog
Becoming
from 19 at 09 UTC to 19 at 11 UTC
Wind 3 kt from variable directions
Visibility: 4000 m
Broken clouds at a height of 800 ft
mist
Becoming
from 19 at 11 UTC to 19 at 12 UTC
Wind 5 kt from the North/Northeast
Visibility: 1000 m
Scattered clouds at a height of 2500 ft

TAF: ETHB 190927Z 1908/1917 VRB02KT 0100 FG VV001 BECMG 1909/1911 VRB03KT 4000 BR BKN008 BECMG 1911/1912 03005KT 8000 NSW SCT025 CANCEL 1000

Weather observations and forecasts of more than 4000 airports (METAR and TAF reports).

The available stations are represented by yellow and red dots on the map.

Hover mouse over dot to see the name of the station.

Then click to see weather observations and forecasts.

To change the map : click on the green buttons with a black cross to zoom in, on the green button with a dash to zoom out, or on the green arrows for adjacent maps.


METAR-TAF: